createdAt,value
2022-08-03T00:01:28.087Z,24.73
2022-08-03T00:03:31.199Z,23.97
2022-08-03T00:05:34.428Z,24.10
2022-08-03T00:07:38.715Z,24.33
2022-08-03T00:09:41.593Z,24.43
2022-08-03T00:11:45.737Z,24.02
2022-08-03T00:13:48.968Z,24.35
2022-08-03T00:15:51.779Z,24.23
2022-08-03T00:17:54.616Z,23.95
2022-08-03T00:19:57.424Z,24.03
2022-08-03T00:22:00.253Z,24.31
2022-08-03T00:24:03.065Z,23.27
2022-08-03T00:26:06.038Z,22.56
2022-08-03T00:28:10.234Z,22.60
2022-08-03T00:30:13.242Z,22.73
2022-08-03T00:32:18.137Z,22.39
2022-08-03T00:34:30.945Z,23.39
2022-08-03T00:36:45.160Z,23.52
2022-08-03T00:38:47.948Z,23.55
2022-08-03T00:40:50.754Z,23.64
2022-08-03T00:42:55.625Z,23.00
2022-08-03T00:44:59.790Z,23.75
2022-08-03T00:47:02.608Z,23.75
2022-08-03T00:49:05.484Z,23.24
2022-08-03T00:51:08.498Z,23.63
2022-08-03T00:53:13.476Z,23.34
2022-08-03T00:55:16.856Z,23.44
2022-08-03T00:57:19.817Z,23.51
2022-08-03T00:59:22.972Z,22.59
2022-08-03T01:01:27.289Z,23.51
2022-08-03T01:03:35.307Z,23.49
2022-08-03T01:05:46.329Z,23.66
2022-08-03T01:08:03.782Z,23.18
2022-08-03T01:10:14.159Z,23.24
2022-08-03T01:12:26.303Z,22.95
2022-08-03T01:14:35.037Z,23.28
2022-08-03T01:16:46.020Z,23.46
2022-08-03T01:18:53.853Z,23.64
2022-08-03T01:20:59.139Z,23.77
2022-08-03T01:23:15.590Z,23.85
2022-08-03T01:25:29.605Z,23.80
2022-08-03T01:27:44.459Z,23.47
2022-08-03T01:29:58.418Z,23.33
2022-08-03T01:32:52.495Z,23.47
2022-08-03T01:34:33.253Z,23.07
2022-08-03T01:36:40.376Z,23.52
2022-08-03T01:38:45.339Z,23.59
2022-08-03T01:40:54.628Z,21.54
2022-08-03T01:43:00.606Z,21.83
2022-08-03T01:45:06.966Z,20.74
2022-08-03T01:47:13.651Z,20.71
2022-08-03T01:49:17.992Z,20.86
2022-08-03T01:51:22.068Z,21.58
2022-08-03T01:53:25.760Z,21.45
2022-08-03T01:55:32.064Z,21.79
2022-08-03T01:58:04.622Z,22.20
2022-08-03T02:00:02.299Z,22.36
2022-08-03T02:02:32.895Z,22.62
2022-08-03T02:04:39.583Z,22.58
2022-08-03T02:07:02.231Z,21.53
2022-08-03T02:09:07.271Z,22.45
2022-08-03T02:11:10.295Z,19.76
2022-08-03T02:13:15.446Z,22.05
2022-08-03T02:15:20.665Z,22.54
2022-08-03T02:17:39.278Z,21.76
2022-08-03T02:19:43.907Z,22.64
2022-08-03T02:21:55.682Z,22.36
2022-08-03T02:24:00.529Z,22.31
2022-08-03T02:26:05.597Z,22.61
2022-08-03T02:28:12.219Z,22.76
2022-08-03T02:30:15.368Z,22.90
2022-08-03T02:32:22.332Z,22.07
2022-08-03T02:34:30.407Z,23.14
2022-08-03T02:36:37.213Z,23.22
2022-08-03T02:38:43.737Z,23.27
2022-08-03T02:40:47.791Z,23.27
2022-08-03T02:42:54.491Z,23.28
2022-08-03T02:45:00.026Z,23.29
2022-08-03T02:47:08.889Z,23.28
2022-08-03T02:49:40.996Z,23.29
2022-08-03T02:51:41.239Z,23.24
2022-08-03T02:53:46.219Z,22.98
2022-08-03T02:55:50.127Z,22.58
2022-08-03T02:57:53.848Z,23.04
2022-08-03T02:59:58.681Z,23.04
2022-08-03T03:02:03.368Z,22.43
2022-08-03T03:04:07.330Z,23.10
2022-08-03T03:06:13.773Z,22.55
2022-08-03T03:08:25.892Z,22.90
2022-08-03T03:10:29.714Z,22.35
2022-08-03T03:12:34.362Z,22.36
2022-08-03T03:14:38.629Z,22.52
2022-08-03T03:16:43.191Z,22.04
2022-08-03T03:18:48.846Z,21.13
2022-08-03T03:20:53.976Z,21.47
2022-08-03T03:22:59.261Z,21.96
2022-08-03T03:25:04.497Z,22.24
2022-08-03T03:27:07.676Z,22.35
2022-08-03T03:29:10.883Z,20.78
2022-08-03T03:31:13.757Z,19.48
2022-08-03T03:33:16.729Z,18.92
2022-08-03T03:35:19.601Z,19.40
2022-08-03T03:37:22.561Z,20.66
2022-08-03T03:39:25.500Z,20.92
2022-08-03T03:41:30.004Z,21.13
2022-08-03T03:43:37.027Z,21.40
2022-08-03T03:45:42.380Z,21.62
2022-08-03T03:47:45.263Z,21.65
2022-08-03T03:49:48.199Z,21.82
2022-08-03T03:51:54.424Z,21.98
2022-08-03T03:53:58.134Z,21.58
2022-08-03T03:56:02.564Z,21.58
2022-08-03T03:58:07.700Z,22.03
2022-08-03T04:00:11.655Z,22.13
2022-08-03T04:02:14.785Z,22.25
2022-08-03T04:04:43.889Z,22.21
2022-08-03T04:07:04.305Z,20.73
2022-08-03T04:09:27.217Z,19.70
2022-08-03T04:11:35.805Z,20.50
2022-08-03T04:13:48.493Z,20.93
2022-08-03T04:15:52.873Z,21.01
2022-08-03T04:17:59.935Z,20.35
2022-08-03T04:20:04.845Z,20.99
2022-08-03T04:22:10.796Z,20.95
2022-08-03T04:24:15.943Z,21.19
2022-08-03T04:26:22.520Z,21.07
2022-08-03T04:28:31.037Z,20.66
2022-08-03T04:30:38.704Z,21.08
2022-08-03T04:32:46.032Z,21.03
2022-08-03T04:34:49.048Z,20.70
2022-08-03T04:36:58.617Z,20.61
2022-08-03T04:39:05.550Z,19.69
2022-08-03T04:41:09.941Z,20.20
2022-08-03T04:43:16.181Z,20.60
2022-08-03T04:45:20.489Z,21.03
2022-08-03T04:47:25.045Z,21.21
2022-08-03T04:49:30.074Z,21.25
2022-08-03T04:51:34.722Z,21.38
2022-08-03T04:53:38.465Z,20.35
2022-08-03T04:55:41.497Z,21.53
2022-08-03T04:57:44.335Z,20.21
2022-08-03T04:59:49.429Z,21.09
2022-08-03T05:01:52.266Z,20.97
2022-08-03T05:03:56.397Z,20.90
2022-08-03T05:06:01.487Z,20.80
2022-08-03T05:08:05.224Z,20.46
2022-08-03T05:10:16.340Z,19.98
2022-08-03T05:12:19.592Z,20.72
2022-08-03T05:14:28.006Z,20.72
2022-08-03T05:16:31.269Z,20.71
2022-08-03T05:18:34.085Z,20.73
2022-08-03T05:20:38.769Z,19.37
2022-08-03T05:22:41.704Z,20.69
2022-08-03T05:24:44.519Z,20.71
2022-08-03T05:26:47.463Z,20.73
2022-08-03T05:28:51.407Z,20.76
2022-08-03T05:30:54.352Z,20.83
2022-08-03T05:32:57.143Z,20.82
2022-08-03T05:34:59.937Z,20.86
2022-08-03T05:37:24.099Z,20.89
2022-08-03T05:39:26.855Z,20.92
2022-08-03T05:41:37.080Z,20.88
2022-08-03T05:43:40.303Z,20.91
2022-08-03T05:45:43.256Z,20.93
2022-08-03T05:47:46.068Z,20.95
2022-08-03T05:49:48.921Z,20.94
2022-08-03T05:52:00.149Z,20.97
2022-08-03T05:54:16.293Z,21.01
2022-08-03T05:56:23.466Z,20.72
2022-08-03T05:58:26.236Z,21.13
2022-08-03T06:00:33.013Z,21.14
2022-08-03T06:02:36.145Z,21.21
2022-08-03T06:04:39.061Z,21.27
2022-08-03T06:06:42.116Z,21.32
2022-08-03T06:08:46.002Z,21.38
2022-08-03T06:10:50.278Z,21.43
2022-08-03T06:12:53.073Z,21.53
2022-08-03T06:14:56.612Z,21.64
2022-08-03T06:16:59.334Z,21.69
2022-08-03T06:19:02.102Z,21.80
2022-08-03T06:21:15.450Z,21.86
2022-08-03T06:23:19.135Z,20.18
2022-08-03T06:25:21.935Z,22.08
2022-08-03T06:27:36.578Z,22.18
2022-08-03T06:29:40.345Z,22.28
2022-08-03T06:31:43.207Z,21.46
2022-08-03T06:34:30.460Z,22.28
2022-08-03T06:36:08.983Z,22.53
2022-08-03T06:38:14.955Z,22.69
2022-08-03T06:40:21.634Z,22.84
2022-08-03T06:42:26.135Z,22.94
2022-08-03T06:44:28.935Z,23.05
2022-08-03T06:46:31.701Z,23.12
2022-08-03T06:48:34.584Z,22.22
2022-08-03T06:50:44.427Z,23.26
2022-08-03T06:52:47.241Z,23.44
2022-08-03T06:54:50.006Z,23.53
2022-08-03T06:56:52.851Z,21.97
2022-08-03T06:58:57.043Z,23.68
2022-08-03T07:00:59.863Z,23.75
2022-08-03T07:03:02.635Z,23.87
2022-08-03T07:05:10.025Z,23.95
2022-08-03T07:07:12.829Z,23.98
2022-08-03T07:09:15.586Z,24.03
2022-08-03T07:11:18.529Z,23.78
2022-08-03T07:13:21.341Z,24.00
2022-08-03T07:15:38.319Z,23.71
2022-08-03T07:17:49.022Z,24.45
2022-08-03T07:19:51.887Z,24.54
2022-08-03T07:21:54.704Z,24.61
2022-08-03T07:24:03.531Z,24.64
2022-08-03T07:26:06.332Z,24.72
2022-08-03T07:28:09.279Z,24.74
2022-08-03T07:30:12.893Z,24.72
2022-08-03T07:32:17.330Z,24.79
2022-08-03T07:34:20.279Z,24.60
2022-08-03T07:36:24.693Z,24.99
2022-08-03T07:38:27.429Z,25.14
2022-08-03T07:40:31.670Z,25.16
2022-08-03T07:42:34.992Z,25.23
2022-08-03T07:44:39.249Z,25.27
2022-08-03T07:46:42.010Z,25.37
2022-08-03T07:48:46.175Z,25.46
2022-08-03T07:50:49.229Z,25.52
2022-08-03T07:52:53.411Z,25.59
2022-08-03T07:54:56.220Z,25.56
2022-08-03T07:56:58.963Z,25.69
2022-08-03T07:59:02.889Z,25.79
2022-08-03T08:01:05.845Z,25.91
2022-08-03T08:03:08.933Z,26.07
2022-08-03T08:05:13.511Z,25.46
2022-08-03T08:07:16.309Z,26.18
2022-08-03T08:09:21.227Z,26.30
2022-08-03T08:11:24.009Z,26.39
2022-08-03T08:13:26.981Z,26.49
2022-08-03T08:15:29.956Z,26.55
2022-08-03T08:17:32.796Z,26.58
2022-08-03T08:19:37.501Z,26.67
2022-08-03T08:21:53.100Z,26.13
2022-08-03T08:24:10.952Z,26.77
2022-08-03T08:26:21.156Z,25.32
2022-08-03T08:28:32.384Z,27.03
2022-08-03T08:30:36.524Z,27.14
2022-08-03T08:32:39.390Z,27.20
2022-08-03T08:34:42.149Z,27.23
2022-08-03T08:36:46.266Z,27.36
2022-08-03T08:38:50.924Z,26.75
2022-08-03T08:40:56.673Z,27.33
2022-08-03T08:42:59.526Z,27.48
2022-08-03T08:45:02.414Z,27.97
2022-08-03T08:47:05.418Z,28.11
2022-08-03T08:49:10.685Z,28.14
2022-08-03T08:51:14.450Z,28.20
2022-08-03T08:53:22.786Z,28.35
2022-08-03T08:55:59.522Z,28.47
2022-08-03T08:58:05.160Z,28.68
2022-08-03T09:00:11.665Z,28.91
2022-08-03T09:02:14.938Z,29.08
2022-08-03T09:04:18.633Z,28.01
2022-08-03T09:06:21.595Z,29.36
2022-08-03T09:08:25.877Z,29.47
2022-08-03T09:10:28.613Z,29.61
2022-08-03T09:12:41.884Z,29.72
2022-08-03T09:15:07.426Z,29.75
2022-08-03T09:17:12.508Z,29.89
2022-08-03T09:19:20.131Z,29.77
2022-08-03T09:21:31.805Z,29.74
2022-08-03T09:24:01.332Z,29.59
2022-08-03T09:26:05.847Z,30.31
2022-08-03T09:28:11.296Z,30.24
2022-08-03T09:30:19.100Z,30.33
2022-08-03T09:32:38.548Z,30.26
2022-08-03T09:34:41.388Z,30.56
2022-08-03T09:36:46.453Z,30.54
2022-08-03T09:39:03.700Z,30.89
2022-08-03T09:41:19.530Z,31.00
2022-08-03T09:43:24.114Z,30.39
2022-08-03T09:45:27.871Z,30.99
2022-08-03T09:47:32.667Z,31.23
2022-08-03T09:49:35.654Z,31.34
2022-08-03T09:52:32.450Z,30.85
2022-08-03T09:54:05.584Z,31.77
2022-08-03T09:56:35.491Z,31.89
2022-08-03T09:58:33.517Z,31.87
2022-08-03T10:00:54.969Z,31.87
2022-08-03T10:03:05.702Z,32.08
2022-08-03T10:05:10.578Z,32.21
2022-08-03T10:07:22.152Z,31.97
2022-08-03T10:09:26.299Z,31.83
2022-08-03T10:11:30.753Z,31.69
2022-08-03T10:13:34.622Z,32.24
2022-08-03T10:16:23.180Z,32.63
2022-08-03T10:18:00.326Z,32.84
2022-08-03T10:20:04.089Z,32.96
2022-08-03T10:22:11.571Z,31.94
2022-08-03T10:24:18.006Z,33.01
2022-08-03T10:26:26.248Z,32.99
2022-08-03T10:28:37.594Z,32.81
2022-08-03T10:30:45.085Z,33.14
2022-08-03T10:32:53.486Z,33.37
2022-08-03T10:35:20.137Z,31.86
2022-08-03T10:37:27.874Z,33.34
2022-08-03T10:39:31.628Z,33.42
2022-08-03T10:41:41.010Z,33.64
2022-08-03T10:43:49.567Z,33.14
2022-08-03T10:45:53.280Z,33.49
2022-08-03T10:47:58.075Z,33.67
2022-08-03T10:50:01.515Z,32.69
2022-08-03T10:52:13.039Z,33.20
2022-08-03T10:55:03.400Z,33.63
2022-08-03T10:57:25.106Z,32.99
2022-08-03T10:59:59.299Z,34.49
2022-08-03T11:02:02.115Z,34.75
2022-08-03T11:04:26.564Z,34.89
2022-08-03T11:06:37.244Z,35.10
2022-08-03T11:08:40.529Z,35.32
2022-08-03T11:10:43.745Z,35.39
2022-08-03T11:12:48.971Z,35.37
2022-08-03T11:14:55.234Z,35.54
2022-08-03T11:17:14.159Z,35.66
2022-08-03T11:19:22.455Z,35.57
2022-08-03T11:21:58.875Z,35.88
2022-08-03T11:24:04.682Z,35.95
2022-08-03T11:26:13.223Z,36.03
2022-08-03T11:28:30.540Z,36.05
2022-08-03T11:30:33.724Z,36.17
2022-08-03T11:32:58.036Z,35.83
2022-08-03T11:35:11.685Z,35.68
2022-08-03T11:37:29.919Z,36.16
2022-08-03T11:39:40.506Z,35.95
2022-08-03T11:41:45.425Z,35.87
2022-08-03T11:43:49.866Z,36.43
2022-08-03T11:45:59.042Z,35.67
2022-08-03T11:48:14.562Z,36.43
2022-08-03T11:50:18.932Z,36.59
2022-08-03T11:52:27.339Z,36.74
2022-08-03T11:54:32.346Z,37.00
2022-08-03T11:56:45.779Z,37.06
2022-08-03T11:59:09.334Z,37.25
2022-08-03T12:01:21.189Z,37.36
2022-08-03T12:03:25.930Z,37.37
2022-08-03T12:05:37.316Z,36.70
2022-08-03T12:08:04.638Z,37.77
2022-08-03T12:10:10.810Z,38.06
2022-08-03T12:12:17.207Z,38.39
2022-08-03T12:14:50.917Z,38.55
2022-08-03T12:16:48.418Z,38.12
2022-08-03T12:18:56.793Z,36.47
2022-08-03T12:21:07.200Z,38.05
2022-08-03T12:23:11.112Z,37.97
2022-08-03T12:25:38.884Z,38.35
2022-08-03T12:27:42.813Z,38.46
2022-08-03T12:29:58.177Z,38.74
2022-08-03T12:32:01.790Z,38.31
2022-08-03T12:34:08.813Z,38.66
2022-08-03T12:36:12.179Z,38.35
2022-08-03T12:38:19.923Z,38.81
2022-08-03T12:40:28.349Z,38.66
2022-08-03T12:42:31.555Z,39.21
2022-08-03T12:44:36.180Z,39.34
2022-08-03T12:46:47.069Z,39.13
2022-08-03T12:49:06.059Z,38.76
2022-08-03T12:51:10.919Z,39.50
2022-08-03T12:53:13.792Z,39.29
2022-08-03T12:55:21.178Z,39.74
2022-08-03T12:57:23.939Z,39.90
2022-08-03T12:59:32.316Z,39.90
2022-08-03T13:01:55.127Z,40.03
2022-08-03T13:03:58.969Z,40.03
2022-08-03T13:06:04.118Z,40.38
2022-08-03T13:08:19.137Z,40.54
2022-08-03T13:10:30.351Z,40.47
2022-08-03T13:12:33.138Z,40.41
2022-08-03T13:14:36.151Z,39.93
2022-08-03T13:16:38.946Z,40.34
2022-08-03T13:18:43.109Z,40.35
2022-08-03T13:20:46.911Z,40.55
2022-08-03T13:22:49.942Z,40.64
2022-08-03T13:24:55.846Z,40.65
2022-08-03T13:26:58.587Z,40.41
2022-08-03T13:29:01.345Z,40.56
2022-08-03T13:31:04.230Z,40.83
2022-08-03T13:33:09.970Z,41.03
2022-08-03T13:35:16.654Z,40.99
2022-08-03T13:37:19.547Z,40.89
2022-08-03T13:39:22.523Z,40.91
2022-08-03T13:41:35.559Z,39.85
2022-08-03T13:43:38.327Z,40.93
2022-08-03T13:45:42.870Z,40.96
2022-08-03T13:47:49.576Z,40.69
2022-08-03T13:50:00.072Z,40.47
2022-08-03T13:52:06.720Z,40.89
2022-08-03T13:54:09.895Z,40.57
2022-08-03T13:56:12.715Z,41.10
2022-08-03T13:58:15.808Z,40.77
2022-08-03T14:00:27.532Z,40.96
2022-08-03T14:02:31.706Z,39.93
2022-08-03T14:04:34.494Z,41.32
2022-08-03T14:06:37.209Z,41.31
2022-08-03T14:08:41.559Z,41.24
2022-08-03T14:10:46.121Z,41.03
2022-08-03T14:12:49.083Z,40.87
2022-08-03T14:14:51.827Z,40.98
2022-08-03T14:16:55.326Z,41.05
2022-08-03T14:18:59.486Z,40.80
2022-08-03T14:21:07.523Z,41.12
2022-08-03T14:23:10.335Z,41.21
2022-08-03T14:25:14.548Z,41.39
2022-08-03T14:27:20.165Z,41.46
2022-08-03T14:29:23.118Z,41.44
2022-08-03T14:32:11.246Z,41.55
2022-08-03T14:33:49.883Z,41.53
2022-08-03T14:35:53.635Z,41.27
2022-08-03T14:37:56.473Z,41.04
2022-08-03T14:40:00.389Z,41.19
2022-08-03T14:42:05.440Z,40.74
2022-08-03T14:44:08.555Z,41.33
2022-08-03T14:46:11.366Z,41.54
2022-08-03T14:50:32.447Z,41.65
2022-08-03T14:50:43.169Z,41.49
2022-08-03T14:52:48.380Z,42.04
2022-08-03T14:54:51.121Z,42.16
2022-08-03T14:56:53.871Z,41.99
2022-08-03T14:58:58.023Z,41.97
2022-08-03T15:01:00.858Z,42.07
2022-08-03T15:03:04.760Z,42.19
2022-08-03T15:05:08.945Z,42.34
2022-08-03T15:07:11.970Z,42.29
2022-08-03T15:09:23.559Z,42.11
2022-08-03T15:11:26.818Z,42.09
2022-08-03T15:13:29.568Z,41.91
2022-08-03T15:15:33.932Z,42.01
2022-08-03T15:17:36.672Z,42.30
2022-08-03T15:20:03.302Z,42.42
2022-08-03T15:22:02.955Z,42.60
2022-08-03T15:24:06.368Z,42.69
2022-08-03T15:26:32.873Z,42.81
2022-08-03T15:28:32.170Z,42.69
2022-08-03T15:30:37.632Z,42.58
2022-08-03T15:32:40.645Z,42.79
2022-08-03T15:34:50.225Z,42.96
2022-08-03T15:36:53.585Z,43.18
2022-08-03T15:38:56.436Z,43.13
2022-08-03T15:40:59.315Z,43.29
2022-08-03T15:43:02.506Z,43.54
2022-08-03T15:45:07.417Z,43.52
2022-08-03T15:47:11.456Z,43.69
2022-08-03T15:49:14.266Z,43.73
2022-08-03T15:51:17.353Z,43.79
2022-08-03T15:53:20.148Z,43.84
2022-08-03T15:55:23.023Z,43.42
2022-08-03T15:57:25.781Z,43.40
2022-08-03T15:59:28.496Z,43.65
2022-08-03T16:01:31.778Z,43.76
2022-08-03T16:03:36.175Z,43.59
2022-08-03T16:05:38.972Z,42.95
2022-08-03T16:08:03.951Z,43.48
2022-08-03T16:10:08.517Z,43.87
2022-08-03T16:12:16.126Z,43.76
2022-08-03T16:14:31.386Z,43.81
2022-08-03T16:16:40.453Z,44.30
2022-08-03T16:18:44.534Z,44.14
2022-08-03T16:20:47.844Z,44.50
2022-08-03T16:22:51.040Z,44.02
2022-08-03T16:24:54.791Z,43.38
2022-08-03T16:26:57.750Z,43.90
2022-08-03T16:29:03.348Z,44.28
2022-08-03T16:31:08.969Z,44.22
2022-08-03T16:33:16.573Z,44.22
2022-08-03T16:35:23.203Z,42.89
2022-08-03T16:37:41.399Z,43.20
2022-08-03T16:39:48.637Z,44.04
2022-08-03T16:41:54.435Z,44.35
2022-08-03T16:44:09.512Z,44.33
2022-08-03T16:46:12.679Z,44.38
2022-08-03T16:48:15.979Z,43.82
2022-08-03T16:50:20.008Z,43.33
2022-08-03T16:52:24.482Z,43.90
2022-08-03T16:54:27.992Z,43.52
2022-08-03T16:56:32.071Z,43.99
2022-08-03T16:58:42.470Z,44.20
2022-08-03T17:00:47.216Z,44.45
2022-08-03T17:02:56.279Z,44.34
2022-08-03T17:04:59.172Z,44.52
2022-08-03T17:07:04.504Z,44.71
2022-08-03T17:09:11.895Z,44.30
2022-08-03T17:11:14.661Z,44.66
2022-08-03T17:13:22.576Z,45.00
2022-08-03T17:15:38.224Z,44.43
2022-08-03T17:17:55.972Z,44.80
2022-08-03T17:19:59.812Z,44.07
2022-08-03T17:22:05.172Z,44.41
2022-08-03T17:24:15.056Z,44.07
2022-08-03T17:26:24.541Z,44.18
2022-08-03T17:28:48.489Z,44.09
2022-08-03T17:31:22.928Z,43.93
2022-08-03T17:33:35.792Z,43.58
2022-08-03T17:35:38.741Z,43.42
2022-08-03T17:37:57.481Z,43.53
2022-08-03T17:40:07.912Z,43.24
2022-08-03T17:42:29.536Z,43.45
2022-08-03T17:44:46.240Z,43.35
2022-08-03T17:46:51.306Z,43.31
2022-08-03T17:48:54.112Z,42.31
2022-08-03T17:51:04.146Z,42.85
2022-08-03T17:53:15.657Z,42.10
2022-08-03T17:55:56.779Z,42.56
2022-08-03T17:58:02.630Z,42.69
2022-08-03T18:00:22.779Z,41.71
2022-08-03T18:02:54.655Z,42.15
2022-08-03T18:05:16.588Z,41.95
2022-08-03T18:07:23.274Z,41.29
2022-08-03T18:10:06.112Z,40.58
2022-08-03T18:12:15.030Z,39.35
2022-08-03T18:14:26.477Z,38.71
2022-08-03T18:16:35.149Z,37.94
2022-08-03T18:18:43.593Z,36.21
2022-08-03T18:20:48.543Z,36.27
2022-08-03T18:22:51.764Z,35.18
2022-08-03T18:24:56.953Z,35.77
2022-08-03T18:27:02.324Z,34.97
2022-08-03T18:29:08.967Z,34.99
2022-08-03T18:32:00.175Z,34.85
2022-08-03T18:34:16.801Z,34.69
2022-08-03T18:36:03.716Z,34.49
2022-08-03T18:38:10.424Z,32.23
2022-08-03T18:40:13.811Z,33.74
2022-08-03T18:42:26.392Z,33.23
2022-08-03T18:44:46.459Z,33.32
2022-08-03T18:47:07.167Z,33.09
2022-08-03T18:49:14.182Z,32.80
2022-08-03T18:51:28.504Z,32.68
2022-08-03T18:54:03.097Z,31.89
2022-08-03T18:56:10.959Z,32.71
2022-08-03T18:58:20.554Z,31.67
2022-08-03T19:00:35.134Z,31.39
2022-08-03T19:02:51.231Z,32.00
2022-08-03T19:04:55.439Z,31.19
2022-08-03T19:07:04.914Z,31.92
2022-08-03T19:09:18.085Z,31.88
2022-08-03T19:11:28.149Z,31.80
2022-08-03T19:13:36.595Z,31.44
2022-08-03T19:18:10.891Z,31.34
2022-08-03T19:20:14.533Z,31.00
2022-08-03T19:22:20.776Z,31.11
2022-08-03T19:24:26.330Z,30.77
2022-08-03T19:26:30.906Z,30.22
2022-08-03T19:28:35.098Z,30.76
2022-08-03T19:30:40.719Z,30.18
2022-08-03T19:32:51.252Z,30.15
2022-08-03T19:34:54.379Z,27.68
2022-08-03T19:36:59.285Z,28.39
2022-08-03T19:39:03.734Z,30.27
2022-08-03T19:41:14.749Z,30.40
2022-08-03T19:43:21.685Z,28.60
2022-08-03T19:46:04.996Z,30.21
2022-08-03T19:48:09.815Z,30.00
2022-08-03T19:50:14.953Z,29.70
2022-08-03T19:52:24.473Z,29.91
2022-08-03T19:54:53.057Z,29.86
2022-08-03T19:57:04.816Z,29.84
2022-08-03T19:59:13.123Z,29.25
2022-08-03T20:01:21.325Z,29.83
2022-08-03T20:03:27.628Z,29.77
2022-08-03T20:05:52.184Z,27.54
2022-08-03T20:08:01.027Z,29.42
2022-08-03T20:10:08.818Z,29.37
2022-08-03T20:12:12.036Z,28.44
2022-08-03T20:14:20.833Z,29.23
2022-08-03T20:16:29.375Z,28.94
2022-08-03T20:18:39.151Z,26.66
2022-08-03T20:20:43.329Z,28.97
2022-08-03T20:22:51.319Z,28.85
2022-08-03T20:24:56.701Z,28.80
2022-08-03T20:27:01.328Z,28.77
2022-08-03T20:29:10.155Z,28.48
2022-08-03T20:31:13.585Z,28.25
2022-08-03T20:33:18.850Z,27.43
2022-08-03T20:35:23.746Z,28.47
2022-08-03T20:37:26.603Z,28.52
2022-08-03T20:39:33.449Z,28.32
2022-08-03T20:41:36.444Z,28.50
2022-08-03T20:43:41.740Z,28.37
2022-08-03T20:45:59.074Z,28.28
2022-08-03T20:48:05.821Z,28.17
2022-08-03T20:50:12.170Z,27.93
2022-08-03T20:52:18.417Z,28.12
2022-08-03T20:54:31.341Z,28.15
2022-08-03T20:56:35.903Z,28.09
2022-08-03T20:58:41.629Z,28.19
2022-08-03T21:00:46.237Z,28.17
2022-08-03T21:02:49.383Z,27.45
2022-08-03T21:04:52.159Z,27.99
2022-08-03T21:07:00.597Z,28.01
2022-08-03T21:09:07.775Z,27.76
2022-08-03T21:11:15.285Z,27.59
2022-08-03T21:13:01.804Z,31.66
2022-08-03T21:13:25.616Z,27.70
2022-08-03T21:16:11.708Z,27.74
2022-08-03T21:17:56.584Z,27.79
2022-08-03T21:20:03.169Z,27.54
2022-08-03T21:22:09.777Z,27.59
2022-08-03T21:24:14.952Z,27.59
2022-08-03T21:26:18.887Z,27.43
2022-08-03T21:28:24.676Z,27.48
2022-08-03T21:30:31.783Z,27.50
2022-08-03T21:32:34.800Z,27.17
2022-08-03T21:34:37.701Z,27.28
2022-08-03T21:36:40.430Z,27.45
2022-08-03T21:38:43.861Z,27.40
2022-08-03T21:40:54.626Z,27.41
2022-08-03T21:42:57.368Z,27.39
2022-08-03T21:45:00.127Z,27.21
2022-08-03T21:47:03.359Z,27.30
2022-08-03T21:50:04.203Z,27.04
2022-08-03T21:51:33.815Z,26.45
2022-08-03T21:54:04.395Z,27.15
2022-08-03T21:56:07.710Z,26.35
2022-08-03T21:58:12.825Z,27.14
2022-08-03T22:00:18.028Z,27.12
2022-08-03T22:02:24.351Z,27.08
2022-08-03T22:04:55.275Z,27.03
2022-08-03T22:06:52.121Z,26.96
2022-08-03T22:08:55.068Z,26.93
2022-08-03T22:10:58.156Z,26.80
2022-08-03T22:13:08.649Z,25.67
2022-08-03T22:15:13.353Z,26.78
2022-08-03T22:17:54.109Z,26.76
2022-08-03T22:19:39.174Z,26.61
2022-08-03T22:21:43.237Z,26.72
2022-08-03T22:23:48.926Z,26.60
2022-08-03T22:25:53.986Z,26.58
2022-08-03T22:27:58.082Z,26.59
2022-08-03T22:30:05.250Z,26.56
2022-08-03T22:32:08.321Z,26.53
2022-08-03T22:34:11.098Z,26.30
2022-08-03T22:36:14.448Z,26.55
2022-08-03T22:38:18.120Z,26.56
2022-08-03T22:40:20.982Z,26.47
2022-08-03T22:42:25.351Z,26.40
2022-08-03T22:44:29.012Z,26.14
2022-08-03T22:46:34.971Z,25.84
2022-08-03T22:48:41.353Z,26.13
2022-08-03T22:50:45.319Z,26.20
2022-08-03T22:52:48.322Z,26.11
2022-08-03T22:54:54.547Z,24.28
2022-08-03T22:56:58.962Z,26.00
2022-08-03T22:59:01.685Z,26.04
2022-08-03T23:01:28.764Z,26.10
2022-08-03T23:04:00.056Z,23.20
2022-08-03T23:06:03.614Z,26.15
2022-08-03T23:08:09.571Z,26.14
2022-08-03T23:10:14.843Z,26.12
2022-08-03T23:12:20.581Z,26.10
2022-08-03T23:14:24.073Z,26.06
2022-08-03T23:16:29.671Z,25.93
2022-08-03T23:18:37.470Z,26.06
2022-08-03T23:20:40.738Z,26.02
2022-08-03T23:22:48.680Z,26.09
2022-08-03T23:24:54.845Z,25.90
2022-08-03T23:26:58.131Z,26.11
2022-08-03T23:29:02.265Z,26.05
2022-08-03T23:31:05.437Z,25.85
2022-08-03T23:33:10.318Z,25.91
2022-08-03T23:36:27.785Z,25.91
2022-08-03T23:38:04.675Z,25.63
2022-08-03T23:40:23.261Z,25.82
2022-08-03T23:42:27.203Z,25.82
2022-08-03T23:44:32.230Z,25.65
2022-08-03T23:46:37.121Z,25.78
2022-08-03T23:48:39.832Z,25.81
2022-08-03T23:50:46.948Z,25.79
2022-08-03T23:52:57.853Z,25.72
2022-08-03T23:55:14.036Z,25.69
2022-08-03T23:57:26.535Z,25.69
2022-08-03T23:59:36.267Z,25.75
